createdAt,value
2019-06-08T00:03:22.644Z,8.00
2019-06-08T00:08:33.204Z,7.75
2019-06-08T00:13:41.334Z,8.03
2019-06-08T00:18:48.655Z,8.35
2019-06-08T00:23:55.952Z,7.50
2019-06-08T00:29:03.580Z,58.60
2019-06-08T00:34:10.897Z,63.38
2019-06-08T00:39:18.853Z,112.62
2019-06-08T00:44:33.662Z,41.83
2019-06-08T00:49:43.713Z,24.80
2019-06-08T00:54:53.018Z,29.25
2019-06-08T01:00:00.189Z,11.90
2019-06-08T01:05:09.092Z,7.20
2019-06-08T01:10:16.829Z,5.80
2019-06-08T01:26:37.644Z,21.07
2019-06-08T01:32:03.395Z,12.73
2019-06-08T01:37:17.899Z,5.80
2019-06-08T01:42:35.565Z,60.25
2019-06-08T01:47:47.293Z,9.38
2019-06-08T01:58:19.322Z,66.62
2019-06-08T02:09:15.919Z,13.43
2019-06-08T02:25:23.376Z,4.95
2019-06-08T02:30:42.080Z,2.72
2019-06-08T02:41:16.751Z,3.37
2019-06-08T02:46:40.134Z,3.30
2019-06-08T02:52:04.830Z,3.90
2019-06-08T02:57:29.167Z,3.55
2019-06-08T03:02:42.419Z,3.62
2019-06-08T03:08:08.221Z,6.20
2019-06-08T03:13:16.795Z,3.17
2019-06-08T03:18:33.699Z,4.92
2019-06-08T03:23:44.183Z,5.78
2019-06-08T03:28:51.593Z,7.90
2019-06-08T03:33:59.130Z,4.30
2019-06-08T03:39:08.660Z,2.87
2019-06-08T03:44:17.432Z,2.90
2019-06-08T03:49:40.254Z,3.45
2019-06-08T03:54:33.412Z,2.92
2019-06-08T03:59:43.188Z,3.08
2019-06-08T04:04:50.034Z,2.25
2019-06-08T04:09:57.497Z,2.50
2019-06-08T04:15:06.510Z,2.05
2019-06-08T04:20:14.348Z,2.05
2019-06-08T04:25:22.230Z,4.70
2019-06-08T04:30:29.733Z,9.85
2019-06-08T04:35:38.202Z,25.65
2019-06-08T04:40:48.509Z,12.63
2019-06-08T04:45:57.010Z,4.70
2019-06-08T04:51:12.068Z,20.02
2019-06-08T04:56:12.559Z,29.20
2019-06-08T05:01:19.850Z,23.70
2019-06-08T05:06:29.404Z,16.25
2019-06-08T05:11:36.833Z,6.78
2019-06-08T05:16:45.319Z,4.12
2019-06-08T05:21:56.300Z,4.25
2019-06-08T05:27:05.185Z,4.90
2019-06-08T05:32:13.509Z,4.12
2019-06-08T05:37:21.062Z,19.60
2019-06-08T05:42:29.546Z,7.55
2019-06-08T05:47:42.129Z,3.22
2019-06-08T05:52:50.297Z,2.50
2019-06-08T05:57:57.819Z,3.10
2019-06-08T06:03:07.664Z,2.37
2019-06-08T06:08:18.935Z,1.98
2019-06-08T06:13:24.897Z,2.30
2019-06-08T06:18:32.354Z,2.67
2019-06-08T06:23:41.044Z,2.37
2019-06-08T06:28:49.591Z,2.10
2019-06-08T06:34:00.322Z,1.85
2019-06-08T06:39:10.249Z,1.87
2019-06-08T06:44:17.666Z,1.80
2019-06-08T06:49:25.006Z,2.00
2019-06-08T06:54:36.560Z,1.90
2019-06-08T06:59:45.546Z,1.85
2019-06-08T07:04:52.330Z,1.50
2019-06-08T07:09:59.996Z,1.47
2019-06-08T07:15:09.410Z,1.50
2019-06-08T07:20:17.082Z,1.40
2019-06-08T07:25:27.239Z,1.40
2019-06-08T07:30:34.767Z,1.40
2019-06-08T07:35:46.829Z,1.30
2019-06-08T07:40:54.177Z,2.00
2019-06-08T07:46:03.825Z,1.70
2019-06-08T07:51:11.194Z,1.43
2019-06-08T07:56:19.722Z,1.47
2019-06-08T08:01:35.684Z,1.90
2019-06-08T08:06:35.563Z,1.72
2019-06-08T08:11:42.886Z,1.82
2019-06-08T08:16:50.941Z,1.77
2019-06-08T08:22:16.318Z,2.37
2019-06-08T08:27:11.731Z,1.60
2019-06-08T08:37:38.061Z,1.77
2019-06-08T08:42:50.606Z,1.90
2019-06-08T08:48:17.156Z,2.03
2019-06-08T08:53:08.954Z,1.83
2019-06-08T08:58:18.519Z,1.87
2019-06-08T09:03:35.101Z,1.92
2019-06-08T09:08:43.544Z,2.17
2019-06-08T09:13:51.944Z,2.50
2019-06-08T09:19:20.881Z,2.27
2019-06-08T09:24:29.706Z,2.20
2019-06-08T09:34:42.854Z,5.65
2019-06-08T09:39:50.374Z,3.15
2019-06-08T09:45:00.387Z,2.92
2019-06-08T09:50:09.423Z,2.47
2019-06-08T09:55:18.337Z,2.40
2019-06-08T10:00:28.911Z,2.65
2019-06-08T10:05:34.556Z,2.43
2019-06-08T10:10:44.256Z,2.65
2019-06-08T10:15:52.116Z,3.00
2019-06-08T10:21:01.318Z,2.70
2019-06-08T10:26:10.348Z,2.40
2019-06-08T10:31:17.697Z,2.67
2019-06-08T10:36:28.339Z,3.47
2019-06-08T10:41:38.785Z,4.50
2019-06-08T10:46:44.875Z,3.80
2019-06-08T10:52:01.669Z,3.50
2019-06-08T10:57:07.580Z,3.90
2019-06-08T11:02:14.764Z,56.10
2019-06-08T11:07:23.561Z,119.13
2019-06-08T11:12:38.974Z,121.70
2019-06-08T11:17:41.371Z,71.12
2019-06-08T11:22:50.067Z,29.27
2019-06-08T11:27:59.910Z,28.90
2019-06-08T11:38:20.300Z,104.38
2019-06-08T11:43:30.089Z,102.82
2019-06-08T11:48:41.279Z,155.75
2019-06-08T11:53:49.918Z,140.03
2019-06-08T11:59:01.075Z,81.63
2019-06-08T12:04:09.848Z,55.05
2019-06-08T12:09:18.844Z,30.50
2019-06-08T12:14:26.423Z,18.70
2019-06-08T12:19:37.773Z,15.43
2019-06-08T12:24:45.031Z,14.58
2019-06-08T12:29:52.827Z,8.70
2019-06-08T12:35:00.312Z,6.35
2019-06-08T12:40:11.516Z,5.85
2019-06-08T12:45:19.060Z,7.70
2019-06-08T12:50:28.174Z,7.08
2019-06-08T12:55:37.553Z,6.20
2019-06-08T13:00:48.054Z,4.53
2019-06-08T13:05:54.464Z,4.40
2019-06-08T13:11:02.837Z,4.10
2019-06-08T13:16:12.528Z,4.40
2019-06-08T13:21:32.041Z,4.42
2019-06-08T13:26:31.117Z,4.67
2019-06-08T13:31:38.526Z,4.87
2019-06-08T13:42:02.710Z,4.67
2019-06-08T13:47:11.116Z,6.85
2019-06-08T13:52:20.900Z,5.47
2019-06-08T13:57:27.224Z,4.42
2019-06-08T14:02:34.459Z,4.33
2019-06-08T14:07:41.721Z,4.65
2019-06-08T14:12:49.081Z,4.58
2019-06-08T14:17:58.539Z,4.97
2019-06-08T14:23:08.951Z,4.50
2019-06-08T14:28:19.280Z,4.62
2019-06-08T14:33:29.151Z,4.87
2019-06-08T14:38:42.111Z,5.10
2019-06-08T14:43:50.767Z,6.15
2019-06-08T14:48:58.608Z,6.78
2019-06-08T14:54:07.673Z,6.70
2019-06-08T14:59:14.903Z,7.30
2019-06-08T15:04:23.905Z,6.70
2019-06-08T15:09:30.783Z,5.87
2019-06-08T15:14:42.014Z,5.78
2019-06-08T15:19:48.256Z,5.62
2019-06-08T15:24:58.035Z,5.50
2019-06-08T15:30:06.839Z,6.00
2019-06-08T15:35:14.417Z,5.67
2019-06-08T15:40:28.380Z,5.95
2019-06-08T15:45:35.362Z,5.50
2019-06-08T15:50:41.201Z,5.83
2019-06-08T15:55:52.014Z,5.58
2019-06-08T16:06:10.380Z,5.40
2019-06-08T16:11:17.758Z,5.92
2019-06-08T16:16:29.092Z,5.62
2019-06-08T16:21:38.018Z,5.33
2019-06-08T16:26:53.399Z,4.70
2019-06-08T16:31:54.869Z,4.17
2019-06-08T16:37:02.368Z,4.20
2019-06-08T16:42:12.782Z,4.37
2019-06-08T16:47:24.633Z,3.85
2019-06-08T16:52:32.508Z,3.52
2019-06-08T16:57:44.444Z,3.95
2019-06-08T17:02:52.987Z,3.83
2019-06-08T17:08:00.394Z,3.22
2019-06-08T17:13:11.602Z,3.20
2019-06-08T17:18:21.177Z,3.30
2019-06-08T17:23:30.610Z,3.17
2019-06-08T17:33:59.440Z,2.65
2019-06-08T17:39:08.066Z,2.33
2019-06-08T17:44:15.919Z,2.65
2019-06-08T17:49:23.675Z,2.75
2019-06-08T17:54:32.590Z,2.27
2019-06-08T17:59:41.639Z,2.90
2019-06-08T18:04:49.857Z,2.52
2019-06-08T18:09:57.716Z,2.40
2019-06-08T18:15:07.652Z,2.50
2019-06-08T18:20:17.853Z,2.30
2019-06-08T18:25:27.869Z,2.40
2019-06-08T18:30:39.708Z,2.52
2019-06-08T18:35:49.037Z,2.50
2019-06-08T18:40:57.383Z,2.10
2019-06-08T18:46:06.976Z,2.15
2019-06-08T18:51:17.477Z,2.30
2019-06-08T18:56:27.607Z,2.27
2019-06-08T19:01:37.896Z,2.20
2019-06-08T19:06:48.383Z,2.05
2019-06-08T19:11:57.308Z,2.20
2019-06-08T19:17:04.647Z,2.33
2019-06-08T19:22:12.945Z,2.20
2019-06-08T19:27:21.252Z,2.12
2019-06-08T19:32:29.452Z,2.10
2019-06-08T19:37:37.704Z,2.33
2019-06-08T19:42:53.498Z,2.25
2019-06-08T19:47:57.570Z,2.20
2019-06-08T19:53:03.994Z,2.10
2019-06-08T19:58:11.685Z,2.02
2019-06-08T20:03:19.464Z,2.10
2019-06-08T20:08:29.101Z,1.90
2019-06-08T20:13:37.558Z,1.95
2019-06-08T20:18:46.275Z,1.87
2019-06-08T20:29:20.025Z,1.90
2019-06-08T20:34:27.125Z,2.25
2019-06-08T20:39:34.791Z,2.17
2019-06-08T20:44:42.350Z,2.50
2019-06-08T20:49:51.859Z,2.75
2019-06-08T20:54:59.139Z,2.50
2019-06-08T21:00:11.685Z,2.72
2019-06-08T21:05:18.217Z,2.80
2019-06-08T21:10:28.164Z,3.00
2019-06-08T21:15:38.013Z,2.87
2019-06-08T21:20:47.162Z,3.22
2019-06-08T21:25:59.284Z,3.37
2019-06-08T21:31:04.521Z,3.70
2019-06-08T21:36:12.128Z,4.10
2019-06-08T21:41:21.695Z,3.90
2019-06-08T21:46:30.491Z,4.40
2019-06-08T21:51:39.656Z,4.25
2019-06-08T21:56:48.985Z,3.90
2019-06-08T22:02:18.133Z,3.90
2019-06-08T22:12:52.386Z,3.20
2019-06-08T22:18:01.504Z,3.27
2019-06-08T22:23:10.086Z,3.30
2019-06-08T22:28:18.677Z,3.95
2019-06-08T22:33:28.014Z,4.22
2019-06-08T22:38:37.232Z,4.62
2019-06-08T22:43:44.401Z,4.37
2019-06-08T22:48:53.169Z,4.40
2019-06-08T22:54:02.754Z,5.45
2019-06-08T22:59:10.595Z,4.20
2019-06-08T23:04:18.771Z,4.40
2019-06-08T23:09:28.264Z,18.75
2019-06-08T23:14:37.661Z,6.95
2019-06-08T23:19:48.062Z,4.10
2019-06-08T23:24:55.562Z,3.42
2019-06-08T23:30:03.813Z,4.10
2019-06-08T23:35:13.387Z,3.20
2019-06-08T23:40:21.660Z,3.67
2019-06-08T23:45:28.976Z,4.20
2019-06-08T23:50:37.956Z,4.55
2019-06-08T23:55:47.719Z,4.85
